Time;durP1;ratioP1;P1;durP2;ratioP2;P2;SDS_P1;SDS_P2;PMS_P1;PMS_P2;Temp;Humidity;BMP_temperature;BMP_pressure;BME280_temperature;BME280_humidity;BME280_pressure;Samples;Min_cycle;Max_cycle;Signal;HPM_P1;HPM_P2
2022/02/23 00:01:18;;;;;;;6.10;5.20;;;6.60;58.20;;;;;;6202666;28;20469;-61
2022/02/23 00:04:23;;;;;;;6.30;5.03;;;6.70;58.40;;;;;;6202440;28;20473;-61
2022/02/23 00:07:26;;;;;;;6.80;5.30;;;6.70;59.40;;;;;;6202801;28;20485;-61
2022/02/23 00:10:29;;;;;;;10.10;4.97;;;6.70;58.40;;;;;;6219461;28;20476;-60
2022/02/23 00:13:34;;;;;;;8.00;5.47;;;6.70;58.40;;;;;;6226642;28;20847;-60
2022/02/23 00:16:37;;;;;;;6.73;5.73;;;6.70;58.40;;;;;;6225478;28;20495;-61
2022/02/23 00:19:43;;;;;;;10.07;4.90;;;6.70;58.40;;;;;;6225091;28;20483;-61
2022/02/23 00:22:46;;;;;;;9.73;6.40;;;6.70;58.00;;;;;;6224236;28;20477;-60
2022/02/23 00:25:49;;;;;;;5.87;4.83;;;6.70;58.20;;;;;;6225368;28;20534;-60
2022/02/23 00:28:52;;;;;;;5.47;4.80;;;6.80;58.10;;;;;;6224581;28;20476;-60
2022/02/23 00:31:55;;;;;;;5.83;5.20;;;6.70;57.70;;;;;;6215909;28;20488;-60
2022/02/23 00:35:00;;;;;;;5.70;5.10;;;6.70;58.00;;;;;;6222907;28;20483;-60
2022/02/23 00:38:03;;;;;;;7.40;5.57;;;6.60;57.90;;;;;;6226144;28;20479;-60
2022/02/23 00:41:07;;;;;;;5.70;4.97;;;6.60;58.00;;;;;;6225639;28;20836;-60
2022/02/23 00:44:10;;;;;;;6.90;4.80;;;6.70;58.40;;;;;;6226023;28;20805;-60
2022/02/23 00:47:13;;;;;;;6.47;5.20;;;6.60;58.40;;;;;;6225663;28;20482;-61
2022/02/23 00:50:18;;;;;;;7.27;5.20;;;6.70;58.80;;;;;;6225917;28;20484;-60
2022/02/23 00:53:21;;;;;;;6.77;5.17;;;6.70;58.90;;;;;;6225567;28;20480;-60
2022/02/23 00:56:24;;;;;;;7.13;5.20;;;6.70;58.90;;;;;;6225785;28;20468;-59
2022/02/23 00:59:28;;;;;;;5.53;5.03;;;6.70;59.10;;;;;;6225817;28;20476;-60
2022/02/23 01:02:31;;;;;;;5.80;4.90;;;6.70;59.40;;;;;;6225806;28;20476;-60
2022/02/23 01:05:35;;;;;;;6.90;5.47;;;6.70;59.60;;;;;;6225610;28;20460;-61
2022/02/23 01:08:39;;;;;;;7.07;5.43;;;6.70;59.10;;;;;;6228212;28;20456;-61
2022/02/23 01:11:42;;;;;;;8.97;5.83;;;6.70;59.10;;;;;;6225948;28;20475;-61
2022/02/23 01:14:46;;;;;;;4.90;4.40;;;6.70;59.20;;;;;;6225208;28;20955;-58
2022/02/23 01:17:49;;;;;;;8.10;4.60;;;6.70;59.40;;;;;;6226113;28;20449;-61
2022/02/23 01:20:53;;;;;;;6.23;4.50;;;6.60;59.40;;;;;;6225321;28;20812;-61
2022/02/23 01:23:56;;;;;;;5.87;3.80;;;6.60;59.40;;;;;;6225475;28;20805;-61
2022/02/23 01:26:59;;;;;;;5.27;4.53;;;6.60;59.50;;;;;;6225502;28;20500;-60
2022/02/23 01:30:04;;;;;;;6.90;4.37;;;6.60;59.60;;;;;;6225597;28;20472;-60
2022/02/23 01:33:08;;;;;;;7.97;5.23;;;6.60;59.50;;;;;;6221868;28;20492;-60
2022/02/23 01:36:12;;;;;;;5.83;4.40;;;6.60;59.70;;;;;;6233268;28;20483;-60
2022/02/23 01:39:15;;;;;;;7.57;4.50;;;6.50;59.80;;;;;;6232880;28;20480;-61
2022/02/23 01:42:18;;;;;;;4.80;4.03;;;6.50;60.10;;;;;;6233341;28;20471;-60
2022/02/23 01:45:21;;;;;;;5.20;4.70;;;6.40;61.50;;;;;;6233758;28;20468;-60
2022/02/23 01:48:24;;;;;;;10.77;4.70;;;6.30;61.10;;;;;;6233393;28;20567;-61
2022/02/23 01:51:30;;;;;;;4.47;3.97;;;6.30;61.50;;;;;;6233412;28;20468;-62
2022/02/23 01:54:33;;;;;;;9.40;4.60;;;6.20;62.20;;;;;;6233161;28;20928;-64
2022/02/23 01:57:36;;;;;;;4.60;3.90;;;6.20;62.30;;;;;;6233231;28;20480;-64
2022/02/23 02:00:40;;;;;;;7.67;5.20;;;6.10;62.60;;;;;;6233043;28;20488;-64
2022/02/23 02:03:47;;;;;;;5.97;4.80;;;6.10;62.90;;;;;;6233188;28;20471;-64
2022/02/23 02:06:51;;;;;;;4.63;4.23;;;6.00;63.30;;;;;;6232689;28;20964;-61
2022/02/23 02:09:54;;;;;;;5.67;4.33;;;5.90;63.70;;;;;;6233099;28;20487;-64
2022/02/23 02:12:57;;;;;;;7.23;5.53;;;5.90;64.10;;;;;;6232719;28;21005;-64
2022/02/23 02:16:00;;;;;;;7.00;4.53;;;5.80;64.30;;;;;;6215430;28;20484;-65
2022/02/23 02:19:04;;;;;;;6.03;4.03;;;5.80;64.50;;;;;;6208458;28;20476;-61
2022/02/23 02:22:11;;;;;;;6.03;4.67;;;5.80;64.80;;;;;;6208456;28;20794;-58
2022/02/23 02:25:14;;;;;;;5.03;4.20;;;5.80;64.90;;;;;;6208316;28;20477;-60
2022/02/23 02:28:17;;;;;;;7.70;5.30;;;5.80;65.30;;;;;;6208467;28;20543;-60
2022/02/23 02:31:20;;;;;;;6.43;4.10;;;5.80;65.40;;;;;;6208234;28;20485;-60
2022/02/23 02:34:24;;;;;;;5.10;3.70;;;5.80;65.80;;;;;;6207840;28;20554;-61
2022/02/23 02:37:28;;;;;;;5.73;4.33;;;5.80;65.60;;;;;;6206431;28;20952;-59
2022/02/23 02:40:32;;;;;;;5.57;4.17;;;5.80;66.00;;;;;;6207741;28;20480;-62
2022/02/23 02:43:35;;;;;;;4.90;4.20;;;5.80;66.00;;;;;;6208061;28;20535;-61
2022/02/23 02:46:38;;;;;;;6.17;3.93;;;5.70;66.20;;;;;;6204724;28;20473;-60
2022/02/23 02:49:42;;;;;;;7.87;4.60;;;5.80;66.40;;;;;;6228657;28;20476;-61
2022/02/23 02:52:46;;;;;;;6.67;3.63;;;5.70;66.10;;;;;;6228406;28;20468;-60
2022/02/23 02:55:49;;;;;;;3.80;3.40;;;5.70;66.50;;;;;;6228254;28;20488;-61
2022/02/23 02:58:53;;;;;;;5.60;3.50;;;5.70;66.40;;;;;;6228307;28;20843;-61
2022/02/23 03:01:56;;;;;;;3.93;3.13;;;5.70;66.00;;;;;;6227882;28;20994;-61
2022/02/23 03:05:02;;;;;;;6.90;3.30;;;5.70;66.20;;;;;;6228609;28;20472;-61
2022/02/23 03:08:06;;;;;;;5.97;3.90;;;5.70;66.20;;;;;;6228118;28;20476;-62
2022/02/23 03:11:09;;;;;;;6.63;3.37;;;5.70;66.40;;;;;;6228039;28;20480;-62
2022/02/23 03:14:13;;;;;;;4.47;3.30;;;5.70;66.50;;;;;;6224884;28;20488;-62
2022/02/23 03:17:16;;;;;;;6.17;3.63;;;5.60;66.90;;;;;;6203657;28;20481;-62
2022/02/23 03:20:19;;;;;;;4.43;3.90;;;5.60;67.20;;;;;;6203594;28;20577;-63
2022/02/23 03:23:24;;;;;;;5.03;3.23;;;5.60;67.50;;;;;;6204420;28;20484;-62
2022/02/23 03:26:27;;;;;;;3.10;2.77;;;5.60;67.60;;;;;;6205199;28;20806;-62
2022/02/23 03:29:30;;;;;;;3.57;2.93;;;5.70;67.60;;;;;;6207662;28;20861;-62
2022/02/23 03:32:33;;;;;;;6.93;3.47;;;5.70;67.20;;;;;;6203879;28;20469;-62
2022/02/23 03:35:37;;;;;;;6.50;4.40;;;5.80;67.40;;;;;;6203029;28;20488;-61
2022/02/23 03:38:43;;;;;;;4.77;3.37;;;5.80;67.30;;;;;;6203539;28;20469;-61
2022/02/23 03:41:46;;;;;;;4.20;3.10;;;5.80;67.60;;;;;;6193710;28;20476;-61
2022/02/23 03:44:49;;;;;;;4.40;4.00;;;5.70;67.80;;;;;;6202902;28;20446;-65
2022/02/23 03:47:53;;;;;;;5.00;4.37;;;5.60;68.10;;;;;;6214102;28;20472;-61
2022/02/23 03:50:56;;;;;;;4.80;3.70;;;5.60;67.90;;;;;;6226887;28;20468;-61
2022/02/23 03:54:01;;;;;;;4.37;3.97;;;5.60;68.00;;;;;;6227171;28;20805;-61
2022/02/23 03:57:05;;;;;;;9.03;4.07;;;5.60;68.10;;;;;;6227021;28;20475;-63
2022/02/23 04:00:12;;;;;;;3.67;3.37;;;5.60;68.30;;;;;;6226729;28;20472;-61
2022/02/23 04:03:17;;;;;;;5.40;3.00;;;5.70;68.40;;;;;;6227216;28;20479;-61
2022/02/23 04:06:20;;;;;;;6.27;4.50;;;5.70;68.40;;;;;;6226998;28;20487;-62
2022/02/23 04:09:25;;;;;;;4.60;3.10;;;5.80;68.60;;;;;;6226970;28;20491;-60
2022/02/23 04:12:28;;;;;;;11.40;8.37;;;5.80;68.70;;;;;;6226944;28;20472;-60
2022/02/23 04:15:31;;;;;;;10.70;8.17;;;5.70;69.20;;;;;;6226797;28;20538;-60
2022/02/23 04:18:35;;;;;;;9.47;6.00;;;5.60;69.70;;;;;;6226428;28;20487;-60
2022/02/23 04:21:38;;;;;;;4.47;4.07;;;5.60;70.30;;;;;;6227019;28;20475;-61
2022/02/23 04:24:43;;;;;;;5.63;4.30;;;5.60;70.50;;;;;;6226650;28;20527;-60
2022/02/23 04:27:46;;;;;;;10.33;4.90;;;5.60;70.80;;;;;;6225632;28;20991;-60
2022/02/23 04:30:49;;;;;;;5.13;3.20;;;5.60;71.10;;;;;;6224716;28;20497;-60
2022/02/23 04:33:52;;;;;;;7.43;3.97;;;5.50;71.10;;;;;;6226608;28;20472;-60
2022/02/23 04:36:56;;;;;;;4.60;4.20;;;5.60;71.20;;;;;;6226093;28;20476;-60
2022/02/23 04:40:05;;;;;;;5.40;3.77;;;5.50;71.10;;;;;;6226157;28;20480;-60
2022/02/23 04:43:08;;;;;;;3.43;3.20;;;5.40;72.20;;;;;;6225775;28;20484;-60
2022/02/23 04:46:12;;;;;;;3.63;2.87;;;5.40;72.40;;;;;;6221382;28;20473;-60
2022/02/23 04:49:15;;;;;;;4.13;3.73;;;5.40;72.70;;;;;;6226724;28;20488;-61
2022/02/23 04:52:18;;;;;;;4.40;3.50;;;5.40;73.00;;;;;;6227845;28;20476;-61
2022/02/23 04:55:22;;;;;;;3.67;3.10;;;5.40;73.50;;;;;;6225760;28;20480;-61
2022/02/23 04:58:26;;;;;;;11.90;5.17;;;5.50;73.70;;;;;;6226000;28;20971;-60
2022/02/23 05:01:29;;;;;;;8.17;4.17;;;5.50;74.10;;;;;;6227097;28;20476;-61
2022/02/23 05:04:33;;;;;;;4.80;3.57;;;5.50;74.20;;;;;;6226600;28;20475;-61
2022/02/23 05:07:36;;;;;;;8.17;4.23;;;5.50;74.10;;;;;;6226662;28;20538;-61
2022/02/23 05:10:41;;;;;;;5.50;3.60;;;5.60;73.40;;;;;;6226207;28;20564;-61
2022/02/23 05:13:44;;;;;;;5.90;2.77;;;5.60;72.80;;;;;;6225469;28;21006;-61
2022/02/23 05:16:47;;;;;;;6.53;3.50;;;5.60;72.40;;;;;;6225087;28;20476;-61
2022/02/23 05:19:50;;;;;;;3.70;3.00;;;5.70;72.60;;;;;;6225595;28;20480;-61
2022/02/23 05:22:54;;;;;;;6.43;3.30;;;5.70;73.20;;;;;;6225181;28;20482;-61
2022/02/23 05:25:59;;;;;;;4.57;2.80;;;5.70;73.50;;;;;;6225601;28;20472;-61
2022/02/23 05:29:02;;;;;;;9.90;3.77;;;5.70;73.40;;;;;;6225012;28;20485;-61
2022/02/23 05:32:06;;;;;;;5.53;3.20;;;5.70;73.40;;;;;;6225601;28;20508;-61
2022/02/23 05:35:10;;;;;;;5.47;3.83;;;5.70;73.60;;;;;;6225001;28;20476;-60
2022/02/23 05:38:13;;;;;;;4.50;2.97;;;5.70;73.90;;;;;;6224985;28;20476;-60
2022/02/23 05:41:17;;;;;;;5.27;3.30;;;5.70;74.00;;;;;;6224899;28;20483;-60
2022/02/23 05:44:20;;;;;;;4.43;3.07;;;5.70;74.00;;;;;;6225087;28;20990;-61
2022/02/23 05:47:24;;;;;;;5.67;4.37;;;5.80;74.00;;;;;;6225162;28;20464;-60
2022/02/23 05:50:27;;;;;;;6.50;4.27;;;5.90;74.10;;;;;;6225059;28;20609;-60
2022/02/23 05:53:36;;;;;;;4.30;3.40;;;5.90;74.10;;;;;;6225006;28;20460;-60
2022/02/23 05:56:41;;;;;;;7.93;3.00;;;5.90;74.40;;;;;;6225880;28;20472;-60
2022/02/23 05:59:44;;;;;;;4.47;3.60;;;5.90;74.60;;;;;;6225235;28;20460;-60
2022/02/23 06:02:48;;;;;;;7.00;3.63;;;6.00;74.90;;;;;;6224816;28;20519;-61
2022/02/23 06:05:52;;;;;;;3.93;3.53;;;6.00;75.20;;;;;;6225117;28;20761;-61
2022/02/23 06:08:55;;;;;;;5.47;3.20;;;6.00;75.10;;;;;;6224645;28;20502;-61
2022/02/23 06:12:01;;;;;;;3.90;3.50;;;6.00;74.40;;;;;;6225010;28;20563;-61
2022/02/23 06:15:05;;;;;;;3.93;3.53;;;6.00;74.40;;;;;;6214623;28;20469;-60
2022/02/23 06:18:08;;;;;;;5.70;3.93;;;6.00;74.10;;;;;;6200747;28;20472;-61
2022/02/23 06:21:11;;;;;;;9.40;5.17;;;5.90;74.10;;;;;;6202510;28;20865;-60
2022/02/23 06:24:14;;;;;;;5.90;4.60;;;6.00;74.40;;;;;;6205251;28;20485;-61
2022/02/23 06:27:19;;;;;;;4.43;4.00;;;5.90;74.90;;;;;;6205386;28;20483;-61
2022/02/23 06:30:22;;;;;;;9.93;4.50;;;6.00;75.10;;;;;;6205845;28;20488;-60
2022/02/23 06:33:25;;;;;;;6.67;4.17;;;6.00;75.00;;;;;;6205220;28;20473;-59
2022/02/23 06:36:29;;;;;;;9.23;5.20;;;6.10;74.90;;;;;;6204844;28;20477;-61
2022/02/23 06:39:33;;;;;;;12.70;6.97;;;6.10;74.30;;;;;;6204918;28;20469;-60
2022/02/23 06:42:40;;;;;;;14.07;7.37;;;6.10;74.50;;;;;;6204389;28;20485;-61
2022/02/23 06:45:45;;;;;;;7.43;6.17;;;6.00;74.60;;;;;;6204920;28;20477;-60
2022/02/23 06:48:49;;;;;;;12.37;7.90;;;5.70;75.70;;;;;;6222220;28;20975;-61
2022/02/23 06:51:56;;;;;;;12.00;8.00;;;5.80;76.30;;;;;;6224123;28;20476;-60
2022/02/23 06:54:59;;;;;;;12.47;8.80;;;5.70;75.00;;;;;;6228844;28;20484;-60
2022/02/23 06:58:05;;;;;;;15.77;8.50;;;5.80;75.40;;;;;;6228337;28;20912;-60
2022/02/23 07:01:14;;;;;;;12.03;8.37;;;5.90;75.50;;;;;;6227841;28;20971;-60
2022/02/23 07:04:17;;;;;;;11.33;8.23;;;6.00;75.20;;;;;;6227579;28;20464;-61
2022/02/23 07:07:20;;;;;;;13.10;8.30;;;6.10;75.40;;;;;;6227797;28;20472;-60
2022/02/23 07:10:25;;;;;;;14.37;7.87;;;6.10;74.60;;;;;;6226854;28;20480;-61
2022/02/23 07:13:30;;;;;;;13.80;8.17;;;6.20;75.90;;;;;;6225274;28;20507;-61
2022/02/23 07:16:33;;;;;;;12.33;8.00;;;6.20;75.10;;;;;;6228277;28;20970;-61
2022/02/23 07:19:36;;;;;;;14.63;9.30;;;6.30;74.80;;;;;;6227954;28;20964;-59
2022/02/23 07:22:40;;;;;;;11.40;7.23;;;6.50;74.40;;;;;;6228016;28;20480;-61
2022/02/23 07:25:43;;;;;;;15.90;9.50;;;6.50;73.90;;;;;;6227845;28;20465;-60
2022/02/23 07:28:49;;;;;;;12.27;7.73;;;6.60;73.70;;;;;;6227448;28;20480;-61
2022/02/23 07:31:52;;;;;;;11.17;7.33;;;6.70;73.70;;;;;;6227673;28;20779;-60
2022/02/23 07:34:56;;;;;;;13.93;8.20;;;6.80;74.10;;;;;;6228233;28;20468;-60
2022/02/23 07:38:04;;;;;;;15.20;8.77;;;6.90;73.50;;;;;;6228051;28;20476;-61
2022/02/23 07:41:07;;;;;;;17.77;9.00;;;7.00;74.30;;;;;;6226764;28;21083;-61
2022/02/23 07:44:32;;;;;;;14.53;10.07;;;7.10;74.90;;;;;;6226923;28;20456;-61
2022/02/23 07:47:36;;;;;;;13.80;8.47;;;7.20;76.10;;;;;;6227223;28;20849;-60
2022/02/23 07:50:39;;;;;;;9.60;6.80;;;7.30;77.10;;;;;;6228680;28;20456;-60
2022/02/23 07:53:43;;;;;;;11.00;6.10;;;7.30;77.40;;;;;;6227624;28;20444;-61
2022/02/23 07:56:46;;;;;;;12.50;8.00;;;7.40;77.70;;;;;;6216876;28;20480;-64
2022/02/23 07:59:50;;;;;;;13.03;6.87;;;7.50;78.60;;;;;;6227078;28;20464;-64
2022/02/23 08:02:53;;;;;;;7.43;6.53;;;7.40;79.20;;;;;;6226238;28;20754;-65
2022/02/23 08:05:56;;;;;;;11.77;6.40;;;7.50;80.00;;;;;;6226314;28;20791;-65
2022/02/23 08:09:00;;;;;;;11.67;6.40;;;7.60;80.10;;;;;;6226056;28;20526;-64
2022/02/23 08:12:04;;;;;;;11.23;5.67;;;7.60;80.40;;;;;;6226430;28;20472;-64
2022/02/23 08:22:00;;;;;;;8.93;4.60;;;7.80;83.00;;;;;;6226498;28;20982;-63
2022/02/23 08:25:03;;;;;;;7.17;4.20;;;7.80;84.70;;;;;;6226473;28;20474;-64
2022/02/23 08:28:07;;;;;;;17.67;8.83;;;7.90;86.10;;;;;;6225979;28;20826;-64
2022/02/23 08:31:11;;;;;;;7.20;5.23;;;8.00;87.00;;;;;;6226298;28;20478;-64
2022/02/23 08:34:14;;;;;;;7.20;4.80;;;8.10;87.50;;;;;;6226343;28;20478;-64
2022/02/23 08:37:18;;;;;;;6.03;4.40;;;8.30;88.10;;;;;;6227750;28;20509;-66
2022/02/23 08:40:22;;;;;;;7.37;4.20;;;8.60;87.90;;;;;;6226369;28;20949;-66
2022/02/23 08:43:25;;;;;;;7.20;4.50;;;9.00;86.60;;;;;;6225208;28;20486;-64
2022/02/23 08:46:32;;;;;;;8.20;5.17;;;9.20;85.50;;;;;;6226467;28;20532;-66
2022/02/23 08:49:35;;;;;;;9.57;5.50;;;9.50;84.30;;;;;;6201779;28;20488;-64
2022/02/23 08:52:39;;;;;;;7.97;5.47;;;9.90;83.40;;;;;;6201597;28;20488;-61
2022/02/23 08:55:42;;;;;;;11.37;5.70;;;10.40;81.30;;;;;;6201491;28;20511;-63
2022/02/23 08:58:45;;;;;;;9.13;5.10;;;10.90;78.90;;;;;;6200941;28;20480;-67
2022/02/23 09:01:49;;;;;;;6.80;4.70;;;11.90;75.50;;;;;;6197195;28;20483;-67
2022/02/23 09:04:53;;;;;;;9.40;4.60;;;14.30;72.60;;;;;;6201928;28;20492;-66
2022/02/23 09:07:56;;;;;;;5.23;4.27;;;17.40;60.60;;;;;;6201227;28;20780;-67
2022/02/23 09:10:59;;;;;;;5.43;3.57;;;21.40;50.80;;;;;;6201559;28;20833;-64
2022/02/23 09:14:03;;;;;;;9.20;4.77;;;24.50;42.80;;;;;;6204363;28;20280;-67
2022/02/23 09:17:07;;;;;;;6.33;4.80;;;27.50;34.40;;;;;;6225521;28;20298;-68
2022/02/23 09:20:12;;;;;;;5.53;4.03;;;30.30;30.60;;;;;;6226024;28;20237;-69
2022/02/23 09:23:16;;;;;;;6.23;4.93;;;30.90;28.10;;;;;;6225824;28;20232;-65
2022/02/23 09:26:19;;;;;;;6.15;4.40;;;31.80;27.30;;;;;;6225919;28;20235;-65
2022/02/23 09:29:24;;;;;;;7.32;3.55;;;32.90;25.40;;;;;;6226941;28;20577;-66
2022/02/23 09:32:28;;;;;;;5.53;4.50;;;34.30;24.50;;;;;;6226055;28;20286;-65
2022/02/23 09:35:33;;;;;;;10.07;6.05;;;36.30;22.80;;;;;;6224741;28;20578;-63
2022/02/23 09:38:37;;;;;;;7.38;5.75;;;37.70;20.90;;;;;;6225216;28;20641;-63
2022/02/23 09:41:45;;;;;;;8.00;4.60;;;38.30;20.20;;;;;;6224964;28;20232;-63
2022/02/23 09:44:49;;;;;;;12.82;8.10;;;38.00;19.10;;;;;;6225160;28;20212;-65
2022/02/23 09:48:14;;;;;;;8.82;7.22;;;38.90;18.60;;;;;;6225204;28;20314;-64
2022/02/23 09:51:18;;;;;;;3.33;2.03;;;39.60;18.20;;;;;;6225893;28;20232;-65
2022/02/23 09:54:21;;;;;;;2.72;0.90;;;40.00;16.80;;;;;;6227063;28;20239;-61
2022/02/23 09:57:24;;;;;;;3.63;1.05;;;40.20;15.70;;;;;;6230525;28;20243;-64
2022/02/23 10:00:29;;;;;;;1.40;0.50;;;41.10;16.40;;;;;;6230311;28;20236;-64
2022/02/23 10:03:34;;;;;;;2.92;1.15;;;41.00;15.60;;;;;;6231863;28;20310;-64
2022/02/23 10:06:39;;;;;;;2.00;0.75;;;41.70;15.00;;;;;;6231886;28;20237;-62
2022/02/23 10:09:43;;;;;;;2.15;0.60;;;40.70;15.00;;;;;;6229910;28;20680;-64
2022/02/23 10:12:54;;;;;;;2.75;0.77;;;39.80;14.60;;;;;;6229476;28;20232;-63
2022/02/23 10:15:58;;;;;;;1.48;0.60;;;40.40;13.90;;;;;;6230137;28;20232;-63
2022/02/23 10:19:23;;;;;;;1.13;0.75;;;40.10;13.60;;;;;;6229417;28;20371;-64
2022/02/23 10:22:28;;;;;;;1.55;0.40;;;37.60;14.30;;;;;;6229292;28;20574;-63
2022/02/23 10:25:35;;;;;;;1.58;0.40;;;37.50;14.90;;;;;;6229509;28;20270;-64
2022/02/23 10:28:38;;;;;;;1.40;0.40;;;38.80;14.10;;;;;;6229244;28;20237;-62
2022/02/23 10:31:50;;;;;;;0.93;0.45;;;39.90;13.70;;;;;;6229416;28;20228;-66
2022/02/23 10:34:58;;;;;;;0.90;0.60;;;41.00;12.90;;;;;;6229371;28;20318;-67
2022/02/23 10:38:07;;;;;;;0.73;0.40;;;40.80;12.40;;;;;;6229074;28;20236;-64
2022/02/23 10:41:23;;;;;;;1.83;0.50;;;37.80;12.90;;;;;;6229123;28;20240;-65
2022/02/23 10:44:29;;;;;;;1.30;0.50;;;35.70;13.80;;;;;;6229363;28;20602;-66
2022/02/23 10:47:35;;;;;;;1.17;0.50;;;34.80;14.60;;;;;;6221248;28;20236;-67
2022/02/23 10:50:40;;;;;;;3.08;0.40;;;35.00;14.50;;;;;;6205193;28;20692;-66
2022/02/23 10:53:43;;;;;;;0.80;0.47;;;35.80;14.60;;;;;;6205169;28;20216;-69
2022/02/23 10:56:46;;;;;;;3.47;0.40;;;36.70;13.70;;;;;;6204248;28;20217;-67
2022/02/23 10:59:52;;;;;;;1.10;0.43;;;36.90;13.70;;;;;;6204469;28;20237;-63
2022/02/23 11:02:58;;;;;;;1.60;0.45;;;36.60;13.40;;;;;;6204315;28;20283;-63
2022/02/23 11:06:03;;;;;;;1.00;0.50;;;36.50;13.60;;;;;;6203195;28;20236;-63
2022/02/23 11:09:08;;;;;;;1.77;0.40;;;38.10;13.20;;;;;;6195034;28;20237;-64
2022/02/23 11:12:12;;;;;;;1.10;0.50;;;39.80;12.20;;;;;;6203903;28;20248;-66
2022/02/23 11:15:20;;;;;;;0.88;0.45;;;40.70;12.10;;;;;;6214934;28;20236;-66
2022/02/23 11:18:24;;;;;;;1.83;0.52;;;41.90;11.40;;;;;;6228206;28;20237;-65
2022/02/23 11:21:32;;;;;;;1.25;0.50;;;41.70;10.60;;;;;;6227315;28;20236;-65
2022/02/23 11:24:35;;;;;;;2.50;0.55;;;41.40;10.80;;;;;;6227228;28;20311;-65
2022/02/23 11:27:43;;;;;;;0.90;0.50;;;41.70;11.00;;;;;;6227289;28;20224;-65
2022/02/23 11:30:47;;;;;;;0.77;0.57;;;42.00;11.10;;;;;;6227315;28;20241;-65
2022/02/23 11:33:57;;;;;;;1.85;0.70;;;42.60;10.50;;;;;;6227966;28;20228;-65
2022/02/23 11:37:02;;;;;;;3.05;0.77;;;42.60;10.70;;;;;;6227488;28;20236;-65
2022/02/23 11:40:08;;;;;;;0.70;0.50;;;43.00;10.30;;;;;;6227351;28;20244;-65
2022/02/23 11:43:24;;;;;;;0.90;0.57;;;43.70;9.90;;;;;;6227407;28;20248;-66
2022/02/23 11:46:28;;;;;;;1.25;0.63;;;44.60;9.60;;;;;;6227714;28;20387;-66
2022/02/23 11:49:32;;;;;;;1.67;0.45;;;45.70;9.60;;;;;;6227197;28;20251;-65
2022/02/23 11:52:44;;;;;;;2.05;0.95;;;45.20;9.20;;;;;;6227100;28;20232;-65
2022/02/23 11:55:49;;;;;;;1.02;0.70;;;45.70;9.00;;;;;;6227808;28;20228;-66
2022/02/23 11:58:55;;;;;;;0.98;0.75;;;45.70;8.90;;;;;;6226975;28;20229;-65
2022/02/23 12:02:00;;;;;;;1.10;0.95;;;45.70;8.90;;;;;;6227382;28;20232;-65
2022/02/23 12:05:04;;;;;;;0.90;0.50;;;45.20;8.70;;;;;;6227139;28;20718;-67
2022/02/23 12:08:42;;;;;;;1.20;0.57;;;44.50;8.80;;;;;;6227516;28;20297;-65
2022/02/23 12:11:51;;;;;;;2.45;0.60;;;44.40;8.70;;;;;;6222566;28;20233;-65
2022/02/23 12:14:55;;;;;;;1.00;0.57;;;44.60;8.90;;;;;;6226679;28;20314;-66
2022/02/23 12:18:00;;;;;;;1.38;0.57;;;45.30;8.90;;;;;;6227235;28;20239;-66
2022/02/23 12:21:11;;;;;;;0.75;0.40;;;46.20;8.80;;;;;;6227093;28;20243;-66
2022/02/23 12:24:18;;;;;;;1.67;0.30;;;47.30;8.50;;;;;;6228159;28;20291;-66
2022/02/23 12:27:22;;;;;;;1.00;0.63;;;47.90;8.30;;;;;;6228339;28;20568;-66
2022/02/23 12:30:29;;;;;;;1.27;0.75;;;48.40;8.00;;;;;;6231916;28;20259;-65
2022/02/23 12:33:33;;;;;;;1.30;0.57;;;47.70;7.90;;;;;;6228559;28;20232;-65
2022/02/23 12:36:56;;;;;;;0.60;0.40;;;47.00;8.00;;;;;;6227836;28;20225;-65
2022/02/23 12:40:02;;;;;;;1.58;0.55;;;46.10;8.10;;;;;;6226761;28;20707;-65
2022/02/23 12:43:06;;;;;;;0.90;0.60;;;44.10;8.50;;;;;;6227013;28;20244;-65
2022/02/23 12:46:09;;;;;;;1.02;0.52;;;43.60;8.70;;;;;;6226369;28;20239;-65
2022/02/23 12:49:14;;;;;;;1.77;0.60;;;44.50;8.70;;;;;;6226242;28;20228;-65
2022/02/23 12:52:18;;;;;;;1.92;0.60;;;45.00;8.50;;;;;;6226873;28;20228;-66
2022/02/23 12:55:23;;;;;;;1.55;0.50;;;45.80;8.20;;;;;;6226460;28;20228;-65
2022/02/23 12:58:33;;;;;;;1.08;0.47;;;44.50;8.20;;;;;;6226432;28;20243;-66
2022/02/23 13:01:41;;;;;;;1.20;0.50;;;44.80;8.50;;;;;;6227678;28;20295;-65
2022/02/23 13:04:45;;;;;;;0.88;0.40;;;44.30;8.60;;;;;;6226854;28;20240;-65
2022/02/23 13:07:49;;;;;;;1.00;0.60;;;45.30;8.40;;;;;;6225795;28;20307;-65
2022/02/23 13:11:02;;;;;;;1.80;0.60;;;46.20;8.20;;;;;;6225611;28;20244;-65
2022/02/23 13:14:11;;;;;;;1.05;0.40;;;46.10;8.00;;;;;;6223438;28;20287;-66
2022/02/23 13:17:17;;;;;;;2.03;0.50;;;46.20;8.20;;;;;;6201163;28;20251;-66
2022/02/23 13:20:22;;;;;;;1.13;0.57;;;46.00;8.10;;;;;;6196411;28;20285;-65
2022/02/23 13:23:25;;;;;;;4.38;0.80;;;46.00;8.00;;;;;;6201122;28;20576;-66
2022/02/23 13:26:32;;;;;;;2.05;0.50;;;46.00;8.10;;;;;;6200955;28;20244;-66
2022/02/23 13:29:36;;;;;;;1.70;0.88;;;46.00;8.10;;;;;;6200321;28;20233;-64
2022/02/23 13:32:41;;;;;;;1.95;0.68;;;46.20;8.00;;;;;;6201106;28;20323;-65
2022/02/23 13:35:45;;;;;;;0.90;0.60;;;45.40;8.10;;;;;;6201023;28;20224;-65
2022/02/23 13:38:48;;;;;;;1.92;0.68;;;45.10;7.80;;;;;;6200727;28;20252;-65
2022/02/23 13:41:59;;;;;;;1.52;0.70;;;44.30;8.10;;;;;;6200492;28;20267;-65
2022/02/23 13:45:11;;;;;;;5.72;0.90;;;44.10;8.10;;;;;;6200678;28;20689;-65
2022/02/23 13:48:14;;;;;;;0.77;0.50;;;43.70;8.20;;;;;;6214823;28;20233;-65
2022/02/23 13:51:26;;;;;;;1.17;0.70;;;43.30;8.40;;;;;;6224785;28;20236;-65
2022/02/23 13:54:30;;;;;;;1.00;0.47;;;42.60;8.50;;;;;;6224463;28;20224;-66
2022/02/23 13:57:43;;;;;;;0.80;0.43;;;41.30;9.00;;;;;;6224527;28;20228;-65
2022/02/23 14:00:49;;;;;;;1.40;0.60;;;41.40;9.00;;;;;;6222588;28;20235;-65
2022/02/23 14:03:55;;;;;;;1.55;0.63;;;40.40;9.40;;;;;;6224802;28;20267;-65
2022/02/23 14:06:59;;;;;;;1.67;0.90;;;37.90;10.10;;;;;;6223419;28;20220;-63
2022/02/23 14:10:02;;;;;;;2.08;1.05;;;35.20;11.10;;;;;;6225015;28;20240;-64
2022/02/23 14:13:08;;;;;;;1.88;0.50;;;32.70;12.10;;;;;;6235292;28;20687;-63
2022/02/23 14:16:13;;;;;;;2.03;1.30;;;29.90;13.30;;;;;;6230844;28;20233;-63
2022/02/23 14:19:19;;;;;;;1.23;0.50;;;27.90;14.70;;;;;;6224515;28;20233;-63
2022/02/23 14:22:25;;;;;;;1.27;0.73;;;26.00;16.00;;;;;;6215583;28;20232;-63
2022/02/23 14:25:28;;;;;;;2.33;1.33;;;24.80;17.40;;;;;;6224412;28;20557;-62
2022/02/23 14:28:37;;;;;;;2.13;0.80;;;23.50;17.30;;;;;;6224417;28;20241;-63
2022/02/23 14:31:48;;;;;;;1.53;0.50;;;22.60;18.20;;;;;;6224138;28;20214;-62
2022/02/23 14:34:56;;;;;;;3.00;0.80;;;21.60;19.00;;;;;;6222119;28;20232;-62
2022/02/23 14:37:59;;;;;;;1.17;0.63;;;20.70;19.10;;;;;;6209363;28;20238;-63
2022/02/23 14:41:02;;;;;;;0.80;0.70;;;20.00;20.90;;;;;;6223325;28;20233;-63
2022/02/23 14:44:07;;;;;;;1.03;0.43;;;19.50;21.10;;;;;;6212717;28;20347;-62
2022/02/23 14:47:12;;;;;;;2.00;0.50;;;19.00;20.90;;;;;;6224826;28;20310;-63
2022/02/23 14:50:15;;;;;;;1.70;0.73;;;18.60;20.50;;;;;;6227514;28;20229;-63
2022/02/23 14:53:19;;;;;;;2.10;0.93;;;18.20;20.60;;;;;;6208796;28;20546;-63
2022/02/23 14:56:23;;;;;;;1.80;0.67;;;17.90;21.20;;;;;;6221168;28;20240;-62
2022/02/23 14:59:28;;;;;;;2.63;0.57;;;17.60;22.90;;;;;;6214172;28;20305;-63
2022/02/23 15:02:31;;;;;;;1.43;0.50;;;17.40;23.50;;;;;;6214544;28;20460;-63
2022/02/23 15:05:37;;;;;;;3.30;0.73;;;17.30;23.90;;;;;;6216853;28;20466;-63
2022/02/23 15:08:41;;;;;;;1.93;0.73;;;17.10;24.40;;;;;;6219788;28;20481;-62
2022/02/23 15:11:44;;;;;;;1.30;0.47;;;16.90;23.40;;;;;;6216973;28;20448;-64
2022/02/23 15:15:07;;;;;;;0.80;0.60;;;16.80;23.10;;;;;;6213043;28;20460;-63
2022/02/23 15:18:10;;;;;;;1.03;0.60;;;16.70;22.90;;;;;;6213099;28;20457;-64
2022/02/23 15:21:13;;;;;;;1.40;0.60;;;16.50;23.00;;;;;;6211628;28;20535;-62
2022/02/23 15:24:16;;;;;;;1.10;0.90;;;16.40;23.40;;;;;;6211867;28;20469;-65
2022/02/23 15:27:19;;;;;;;1.00;0.60;;;16.30;23.40;;;;;;6213695;28;20955;-63
2022/02/23 15:30:24;;;;;;;0.90;0.80;;;16.10;23.10;;;;;;6211021;28;20477;-64
2022/02/23 15:33:27;;;;;;;2.70;1.00;;;16.00;23.20;;;;;;6214872;28;20476;-64
2022/02/23 15:36:31;;;;;;;2.00;0.70;;;15.90;23.40;;;;;;6221005;28;20477;-64
2022/02/23 15:39:34;;;;;;;1.30;0.70;;;15.80;23.00;;;;;;6227177;28;20480;-65
2022/02/23 15:42:37;;;;;;;0.77;0.60;;;15.70;23.30;;;;;;6210698;28;20479;-64
2022/02/23 15:45:44;;;;;;;0.50;0.50;;;15.60;23.50;;;;;;6215433;28;20953;-64
2022/02/23 15:48:47;;;;;;;2.20;1.03;;;15.50;23.50;;;;;;6223460;28;20492;-63
2022/02/23 15:51:50;;;;;;;0.80;0.60;;;15.30;23.50;;;;;;6214154;28;20469;-64
2022/02/23 15:54:53;;;;;;;0.70;0.50;;;15.30;23.60;;;;;;6219142;28;20967;-63
2022/02/23 15:57:56;;;;;;;0.90;0.60;;;15.10;23.90;;;;;;6216640;28;20526;-64
2022/02/23 16:01:01;;;;;;;1.97;0.80;;;15.00;23.90;;;;;;6210725;28;21156;-64
2022/02/23 16:04:05;;;;;;;1.30;0.80;;;15.00;24.10;;;;;;6227113;28;20469;-64
2022/02/23 16:07:08;;;;;;;2.53;0.93;;;14.90;24.00;;;;;;6220175;28;20477;-65
2022/02/23 16:10:11;;;;;;;0.83;0.70;;;14.90;23.90;;;;;;6217586;28;20944;-65
2022/02/23 16:13:14;;;;;;;1.13;0.60;;;14.70;24.30;;;;;;6225095;28;20483;-65
2022/02/23 16:16:20;;;;;;;1.33;0.90;;;14.60;24.20;;;;;;6224880;28;20482;-64